Windsor, Canada
Current Conditions -  °F | °C
As of 1:00 PM on Monday 20 Oct 2014 (Local Time) from CYQG Reporting Station
Overcast Overcast  
Wind Chill: 55°   Ceiling: 5400
Heat Index: 55°   Visibility: 10mi
Dew Point: 46°   Wind: 12mph
Humidity: 72%   Direction: 230°SW
Pressure: 29.81"   Gusts: NA
Location:  42.26°N, 82.96°W
Report Text: CYQG 201700Z 23010KT 10SM BKN054 OVC080 13/08 A2981 RMK SC6AC2 SLP097
Loading
Personal Weather Stations






























Interactive Weather Map
Tropical Storm Tracking
New forecast layout! Learn more

10-Day Weather Forecast

Advertisements
Track Severe Weather on mobile